Time;durP1;ratioP1;P1;durP2;ratioP2;P2;SDS_P1;SDS_P2;PMS_P1;PMS_P2;Temp;Humidity;BMP_temperature;BMP_pressure;BME280_temperature;BME280_humidity;BME280_pressure;Samples;Min_cycle;Max_cycle;Signal;HPM_P1;HPM_P2
2020/12/21 00:01:24;;;;;;;0.45;0.45;;;;;;;;;;4997576;28;20178;-67
2020/12/21 00:03:50;;;;;;;0.83;0.83;;;;;;;;;;4998031;28;20177;-64
2020/12/21 00:06:16;;;;;;;0.77;0.70;;;;;;;;;;4999001;28;20492;-67
2020/12/21 00:08:42;;;;;;;2.15;1.25;;;;;;;;;;4996500;28;20543;-66
2020/12/21 00:11:09;;;;;;;0.63;0.63;;;;;;;;;;5012801;28;20178;-66
2020/12/21 00:13:45;;;;;;;0.88;0.88;;;;;;;;;;5010180;28;20169;-64
2020/12/21 00:16:11;;;;;;;1.85;1.20;;;;;;;;;;4997105;28;20224;-66
2020/12/21 00:18:37;;;;;;;1.05;0.60;;;;;;;;;;5055990;23;20251;-65
2020/12/21 00:21:04;;;;;;;1.48;1.23;;;;;;;;;;5031281;28;20637;-65
2020/12/21 00:23:30;;;;;;;1.00;1.00;;;;;;;;;;5031903;28;20251;-65
2020/12/21 00:25:57;;;;;;;1.50;0.70;;;;;;;;;;5032177;28;20176;-65
2020/12/21 00:28:23;;;;;;;1.10;1.10;;;;;;;;;;5031823;28;20279;-65
2020/12/21 00:30:49;;;;;;;1.23;1.13;;;;;;;;;;5031745;28;20258;-65
2020/12/21 00:33:15;;;;;;;1.40;1.33;;;;;;;;;;5031974;28;20549;-65
2020/12/21 00:35:41;;;;;;;0.75;0.75;;;;;;;;;;5031947;28;20173;-65
2020/12/21 00:38:08;;;;;;;0.88;0.75;;;;;;;;;;5031807;28;20204;-65
2020/12/21 00:40:34;;;;;;;1.13;1.13;;;;;;;;;;5030427;28;20263;-65
2020/12/21 00:43:00;;;;;;;0.63;0.63;;;;;;;;;;5030335;28;20423;-65
2020/12/21 00:45:26;;;;;;;0.40;0.40;;;;;;;;;;5031826;28;20381;-65
2020/12/21 00:47:51;;;;;;;0.60;0.60;;;;;;;;;;5031685;28;20179;-65
2020/12/21 00:50:17;;;;;;;0.63;0.63;;;;;;;;;;5031503;28;20414;-65
2020/12/21 00:52:43;;;;;;;0.90;0.90;;;;;;;;;;5031759;28;20462;-65
2020/12/21 00:55:09;;;;;;;0.50;0.50;;;;;;;;;;5031754;28;20803;-65
2020/12/21 00:57:35;;;;;;;1.07;0.60;;;;;;;;;;5031498;28;20489;-65
2020/12/21 01:00:02;;;;;;;1.40;1.27;;;;;;;;;;5031388;28;20485;-65
2020/12/21 01:02:28;;;;;;;1.50;0.68;;;;;;;;;;5031521;28;20209;-65
2020/12/21 01:04:54;;;;;;;1.13;1.08;;;;;;;;;;5031623;28;20176;-65
2020/12/21 01:07:20;;;;;;;0.70;0.70;;;;;;;;;;5031563;28;20168;-65
2020/12/21 01:09:46;;;;;;;0.70;0.70;;;;;;;;;;5031223;28;20237;-65
2020/12/21 01:12:15;;;;;;;1.20;1.10;;;;;;;;;;5031423;28;20203;-65
2020/12/21 01:14:41;;;;;;;0.60;0.60;;;;;;;;;;5031799;28;20179;-65
2020/12/21 01:17:07;;;;;;;1.17;1.13;;;;;;;;;;5031439;28;20171;-65
2020/12/21 01:19:33;;;;;;;0.65;0.65;;;;;;;;;;5031094;28;20691;-65
2020/12/21 01:21:59;;;;;;;0.90;0.90;;;;;;;;;;5031355;28;20204;-66
2020/12/21 01:24:25;;;;;;;0.80;0.80;;;;;;;;;;5038080;28;20517;-65
2020/12/21 01:26:51;;;;;;;1.60;0.90;;;;;;;;;;5031680;28;20456;-65
2020/12/21 01:29:17;;;;;;;0.70;0.70;;;;;;;;;;5031308;28;20563;-65
2020/12/21 01:31:43;;;;;;;0.90;0.90;;;;;;;;;;5031407;28;20177;-65
2020/12/21 01:34:10;;;;;;;2.20;1.40;;;;;;;;;;5031357;28;20410;-65
2020/12/21 01:36:36;;;;;;;2.25;1.42;;;;;;;;;;5031401;28;20412;-64
2020/12/21 01:39:02;;;;;;;0.88;0.63;;;;;;;;;;5028952;28;20208;-65
2020/12/21 01:41:28;;;;;;;0.90;0.90;;;;;;;;;;5030769;28;20172;-65
2020/12/21 01:43:57;;;;;;;1.70;1.38;;;;;;;;;;5031117;28;20551;-65
2020/12/21 01:46:24;;;;;;;0.60;0.60;;;;;;;;;;5030986;28;20302;-65
2020/12/21 01:48:50;;;;;;;0.90;0.90;;;;;;;;;;5030717;28;20197;-65
2020/12/21 01:51:27;;;;;;;1.50;1.40;;;;;;;;;;5026212;28;20248;-65
2020/12/21 01:53:53;;;;;;;0.77;0.77;;;;;;;;;;5030896;28;20252;-65
2020/12/21 01:56:19;;;;;;;0.70;0.70;;;;;;;;;;5025291;28;20196;-65
2020/12/21 01:58:46;;;;;;;0.60;0.60;;;;;;;;;;5010841;28;20198;-65
2020/12/21 02:01:13;;;;;;;1.05;1.05;;;;;;;;;;5017362;28;20227;-65
2020/12/21 02:03:40;;;;;;;1.05;0.60;;;;;;;;;;5011783;28;20184;-65
2020/12/21 02:06:06;;;;;;;1.23;1.13;;;;;;;;;;5027260;28;20207;-65
2020/12/21 02:08:32;;;;;;;0.68;0.68;;;;;;;;;;5034091;28;20648;-63
2020/12/21 02:10:58;;;;;;;0.77;0.77;;;;;;;;;;5022286;28;20576;-64
2020/12/21 02:13:24;;;;;;;0.90;0.90;;;;;;;;;;5014482;28;20186;-65
2020/12/21 02:15:50;;;;;;;0.70;0.70;;;;;;;;;;5021045;28;20175;-65
2020/12/21 02:18:16;;;;;;;1.73;0.70;;;;;;;;;;5014226;28;20843;-65
2020/12/21 02:20:42;;;;;;;0.80;0.80;;;;;;;;;;5021628;28;20490;-65
2020/12/21 02:23:08;;;;;;;0.73;0.73;;;;;;;;;;5033190;28;20196;-65
2020/12/21 02:25:34;;;;;;;1.50;1.23;;;;;;;;;;5027312;28;20192;-65
2020/12/21 02:28:00;;;;;;;0.95;0.52;;;;;;;;;;5014397;28;20432;-65
2020/12/21 02:30:26;;;;;;;0.83;0.83;;;;;;;;;;5020677;28;20200;-65
2020/12/21 02:32:52;;;;;;;1.37;1.30;;;;;;;;;;5033893;28;20506;-65
2020/12/21 02:35:18;;;;;;;0.70;0.70;;;;;;;;;;5027294;28;20562;-65
2020/12/21 02:37:44;;;;;;;1.10;1.10;;;;;;;;;;5016819;28;20461;-65
2020/12/21 02:40:10;;;;;;;1.48;1.38;;;;;;;;;;5013865;28;20470;-65
2020/12/21 02:42:36;;;;;;;2.47;2.37;;;;;;;;;;5017159;28;20678;-65
2020/12/21 02:45:04;;;;;;;0.60;0.60;;;;;;;;;;5033466;28;20415;-65
2020/12/21 02:47:30;;;;;;;5.25;1.33;;;;;;;;;;5019767;28;20537;-65
2020/12/21 02:49:56;;;;;;;1.27;1.17;;;;;;;;;;5033624;28;20194;-65
2020/12/21 02:52:22;;;;;;;1.33;0.93;;;;;;;;;;5031782;28;20509;-65
2020/12/21 02:54:48;;;;;;;0.85;0.85;;;;;;;;;;5033798;28;20420;-65
2020/12/21 02:57:14;;;;;;;0.65;0.65;;;;;;;;;;5022245;28;20660;-65
2020/12/21 02:59:40;;;;;;;1.60;1.50;;;;;;;;;;5032177;28;20701;-65
2020/12/21 03:02:06;;;;;;;0.60;0.60;;;;;;;;;;5017677;28;20212;-65
2020/12/21 03:04:33;;;;;;;0.60;0.60;;;;;;;;;;5031068;28;20180;-65
2020/12/21 03:07:00;;;;;;;0.93;0.80;;;;;;;;;;5022270;28;20215;-65
2020/12/21 03:09:26;;;;;;;1.20;1.20;;;;;;;;;;5013333;28;20200;-65
2020/12/21 03:11:52;;;;;;;0.73;0.73;;;;;;;;;;5022609;28;20237;-65
2020/12/21 03:14:18;;;;;;;0.50;0.50;;;;;;;;;;5026739;28;20484;-65
2020/12/21 03:16:44;;;;;;;1.65;1.55;;;;;;;;;;5022104;28;20424;-65
2020/12/21 03:19:10;;;;;;;0.50;0.50;;;;;;;;;;5027804;28;20219;-64
2020/12/21 03:21:36;;;;;;;0.82;0.82;;;;;;;;;;5013346;28;20188;-65
2020/12/21 03:24:02;;;;;;;0.90;0.90;;;;;;;;;;5016371;28;20182;-65
2020/12/21 03:26:28;;;;;;;0.85;0.85;;;;;;;;;;5030573;28;20517;-65
2020/12/21 03:28:54;;;;;;;0.93;0.93;;;;;;;;;;5013222;28;20576;-65
2020/12/21 03:31:20;;;;;;;1.45;1.35;;;;;;;;;;5018350;28;20609;-65
2020/12/21 03:33:47;;;;;;;1.20;1.02;;;;;;;;;;5033012;28;20208;-65
2020/12/21 03:36:13;;;;;;;0.88;0.88;;;;;;;;;;5028823;28;20176;-65
2020/12/21 03:38:39;;;;;;;0.97;0.97;;;;;;;;;;5012990;28;20561;-64
2020/12/21 03:41:04;;;;;;;1.13;1.13;;;;;;;;;;5014912;28;20426;-64
2020/12/21 03:43:30;;;;;;;1.20;1.20;;;;;;;;;;5032169;28;20897;-65
2020/12/21 03:45:56;;;;;;;1.25;1.25;;;;;;;;;;5014053;28;20418;-65
2020/12/21 03:48:22;;;;;;;1.70;1.60;;;;;;;;;;5019465;28;20197;-65
2020/12/21 03:50:48;;;;;;;0.73;0.73;;;;;;;;;;5013832;28;20527;-65
2020/12/21 03:53:14;;;;;;;1.58;0.82;;;;;;;;;;5012884;28;20177;-65
2020/12/21 03:55:40;;;;;;;0.70;0.70;;;;;;;;;;5015845;28;20192;-64
2020/12/21 03:58:06;;;;;;;0.82;0.82;;;;;;;;;;5012722;28;20898;-65
2020/12/21 04:00:32;;;;;;;0.43;0.43;;;;;;;;;;5024625;28;20235;-65
2020/12/21 04:02:58;;;;;;;0.85;0.85;;;;;;;;;;5012637;28;20463;-65
2020/12/21 04:05:24;;;;;;;1.33;1.33;;;;;;;;;;5012672;28;20167;-65
2020/12/21 04:07:50;;;;;;;1.13;1.03;;;;;;;;;;5025636;28;20505;-65
2020/12/21 04:10:17;;;;;;;1.97;1.87;;;;;;;;;;5032195;28;20404;-65
2020/12/21 04:12:46;;;;;;;1.85;1.15;;;;;;;;;;5024160;28;20465;-65
2020/12/21 04:15:12;;;;;;;1.23;1.23;;;;;;;;;;5032237;28;20171;-65
2020/12/21 04:17:38;;;;;;;1.33;1.23;;;;;;;;;;5017290;28;20196;-65
2020/12/21 04:20:04;;;;;;;1.15;1.13;;;;;;;;;;5031192;28;20507;-65
2020/12/21 04:22:30;;;;;;;0.50;0.50;;;;;;;;;;5014234;28;20219;-65
2020/12/21 04:24:56;;;;;;;1.52;1.42;;;;;;;;;;5023921;28;20187;-65
2020/12/21 04:27:22;;;;;;;1.57;1.53;;;;;;;;;;5030133;28;20563;-65
2020/12/21 04:29:48;;;;;;;0.97;0.93;;;;;;;;;;5031753;28;20457;-65
2020/12/21 04:32:14;;;;;;;2.25;2.05;;;;;;;;;;5022366;28;20465;-65
2020/12/21 04:34:40;;;;;;;0.60;0.60;;;;;;;;;;5017534;28;20654;-65
2020/12/21 04:37:06;;;;;;;1.40;1.30;;;;;;;;;;5031556;28;20421;-65
2020/12/21 04:39:32;;;;;;;0.87;0.87;;;;;;;;;;5029964;28;20451;-65
2020/12/21 04:41:59;;;;;;;1.77;1.67;;;;;;;;;;5011861;28;20488;-65
2020/12/21 04:44:25;;;;;;;0.85;0.85;;;;;;;;;;5014273;28;20181;-65
2020/12/21 04:46:52;;;;;;;1.13;1.13;;;;;;;;;;5031413;28;20213;-65
2020/12/21 04:49:18;;;;;;;1.50;1.40;;;;;;;;;;5019500;28;20194;-65
2020/12/21 04:51:46;;;;;;;1.00;1.00;;;;;;;;;;5011997;28;20273;-65
2020/12/21 04:54:12;;;;;;;1.33;1.27;;;;;;;;;;5028672;28;20183;-65
2020/12/21 04:56:38;;;;;;;2.72;2.55;;;;;;;;;;5026666;28;20685;-65
2020/12/21 04:59:04;;;;;;;0.93;0.93;;;;;;;;;;5018066;28;20208;-65
2020/12/21 05:01:30;;;;;;;1.38;1.27;;;;;;;;;;5020926;28;20576;-65
2020/12/21 05:03:56;;;;;;;1.27;1.17;;;;;;;;;;5021197;28;20188;-65
2020/12/21 05:06:22;;;;;;;1.47;1.20;;;;;;;;;;5030236;28;20172;-64
2020/12/21 05:08:48;;;;;;;0.70;0.70;;;;;;;;;;5027432;28;20445;-64
2020/12/21 05:11:14;;;;;;;0.60;0.60;;;;;;;;;;5022855;28;20412;-65
2020/12/21 05:13:40;;;;;;;1.63;1.52;;;;;;;;;;5030810;28;20194;-65
2020/12/21 05:16:06;;;;;;;1.70;1.55;;;;;;;;;;5026284;28;20182;-65
2020/12/21 05:18:36;;;;;;;1.13;1.13;;;;;;;;;;5011628;28;20207;-65
2020/12/21 05:21:03;;;;;;;0.80;0.80;;;;;;;;;;5016288;28;20952;-65
2020/12/21 05:23:29;;;;;;;1.00;1.00;;;;;;;;;;5031324;28;20238;-66
2020/12/21 05:25:59;;;;;;;1.23;1.23;;;;;;;;;;5025101;28;20262;-64
2020/12/21 05:28:35;;;;;;;0.90;0.90;;;;;;;;;;5011566;28;20192;-65
2020/12/21 05:31:03;;;;;;;1.52;1.42;;;;;;;;;;5011397;28;20206;-64
2020/12/21 05:33:29;;;;;;;0.85;0.85;;;;;;;;;;5011573;28;20604;-65
2020/12/21 05:35:56;;;;;;;1.25;0.80;;;;;;;;;;5019245;28;20180;-64
2020/12/21 05:38:23;;;;;;;0.50;0.50;;;;;;;;;;5031467;28;20194;-65
2020/12/21 05:40:50;;;;;;;1.77;1.67;;;;;;;;;;5027681;28;20191;-65
2020/12/21 05:43:23;;;;;;;0.82;0.82;;;;;;;;;;5029956;28;20203;-65
2020/12/21 05:46:00;;;;;;;1.35;1.25;;;;;;;;;;5032791;28;20698;-65
2020/12/21 05:48:29;;;;;;;0.98;0.98;;;;;;;;;;5034435;28;20222;-65
2020/12/21 05:50:55;;;;;;;2.35;1.23;;;;;;;;;;5023481;28;20209;-65
2020/12/21 05:53:21;;;;;;;0.90;0.90;;;;;;;;;;5015207;28;20209;-65
2020/12/21 05:55:47;;;;;;;0.60;0.60;;;;;;;;;;5024319;28;20225;-65
2020/12/21 05:58:13;;;;;;;2.50;2.13;;;;;;;;;;5034747;28;20519;-65
2020/12/21 06:00:39;;;;;;;1.33;1.23;;;;;;;;;;5033049;28;20226;-65
2020/12/21 06:03:08;;;;;;;2.20;1.77;;;;;;;;;;5034760;28;20462;-65
2020/12/21 06:05:36;;;;;;;1.80;1.70;;;;;;;;;;5027754;28;20481;-65
2020/12/21 06:08:03;;;;;;;1.08;1.08;;;;;;;;;;5020277;28;20585;-64
2020/12/21 06:10:29;;;;;;;5.25;3.08;;;;;;;;;;5034006;28;20189;-66
2020/12/21 06:12:56;;;;;;;0.88;0.88;;;;;;;;;;5034729;28;20182;-65
2020/12/21 06:15:24;;;;;;;4.32;1.60;;;;;;;;;;5034518;28;20181;-65
2020/12/21 06:17:50;;;;;;;1.15;1.15;;;;;;;;;;5034278;28;20639;-65
2020/12/21 06:20:16;;;;;;;1.52;1.42;;;;;;;;;;5061610;23;20253;-64
2020/12/21 06:22:42;;;;;;;1.33;1.23;;;;;;;;;;5033666;28;20203;-67
2020/12/21 06:25:09;;;;;;;1.43;1.27;;;;;;;;;;5034425;28;20418;-66
2020/12/21 06:27:39;;;;;;;0.98;0.98;;;;;;;;;;5034753;28;20506;-66
2020/12/21 06:30:06;;;;;;;0.95;0.70;;;;;;;;;;5034359;28;20220;-66
2020/12/21 06:32:33;;;;;;;1.13;1.13;;;;;;;;;;5034539;28;20286;-65
2020/12/21 06:34:59;;;;;;;1.60;1.50;;;;;;;;;;5034480;28;20182;-66
2020/12/21 06:37:25;;;;;;;1.98;1.88;;;;;;;;;;5034104;28;20267;-66
2020/12/21 06:39:58;;;;;;;1.27;1.17;;;;;;;;;;5033960;28;20333;-66
2020/12/21 06:42:24;;;;;;;0.98;0.98;;;;;;;;;;5034012;28;20212;-66
2020/12/21 06:44:54;;;;;;;0.85;0.85;;;;;;;;;;5034089;28;20183;-66
2020/12/21 06:47:20;;;;;;;0.80;0.80;;;;;;;;;;5033692;28;20189;-65
2020/12/21 06:49:46;;;;;;;0.60;0.60;;;;;;;;;;5033335;28;20560;-66
2020/12/21 06:52:12;;;;;;;1.70;1.40;;;;;;;;;;5033839;28;20416;-66
2020/12/21 06:54:38;;;;;;;0.67;0.67;;;;;;;;;;5033415;28;20521;-66
2020/12/21 06:57:04;;;;;;;0.60;0.60;;;;;;;;;;5026883;28;20426;-66
2020/12/21 06:59:30;;;;;;;1.60;1.50;;;;;;;;;;5025543;28;20265;-65
2020/12/21 07:01:56;;;;;;;0.90;0.90;;;;;;;;;;5024294;28;20316;-64
2020/12/21 07:04:25;;;;;;;2.00;1.90;;;;;;;;;;5020209;28;20491;-66
2020/12/21 07:06:52;;;;;;;1.90;1.80;;;;;;;;;;5025745;28;20610;-64
2020/12/21 07:09:47;;;;;;;1.35;0.98;;;;;;;;;;5031072;28;20670;-64
2020/12/21 07:12:13;;;;;;;1.45;1.40;;;;;;;;;;5022768;28;20222;-65
2020/12/21 07:14:39;;;;;;;0.63;0.63;;;;;;;;;;5033473;28;20210;-66
2020/12/21 07:17:13;;;;;;;0.90;0.90;;;;;;;;;;5029611;28;20465;-66
2020/12/21 07:19:40;;;;;;;1.70;1.60;;;;;;;;;;5014375;28;20567;-66
2020/12/21 07:22:07;;;;;;;0.95;0.95;;;;;;;;;;5021953;28;20752;-65
2020/12/21 07:24:33;;;;;;;1.15;1.15;;;;;;;;;;5025047;28;20184;-65
2020/12/21 07:26:59;;;;;;;1.15;1.15;;;;;;;;;;5033798;28;20186;-64
2020/12/21 07:29:31;;;;;;;1.48;1.48;;;;;;;;;;5030261;28;20239;-65
2020/12/21 07:31:58;;;;;;;1.05;1.05;;;;;;;;;;5013367;28;20183;-66
2020/12/21 07:34:24;;;;;;;0.95;0.93;;;;;;;;;;5013453;28;20194;-64
2020/12/21 07:36:50;;;;;;;0.85;0.60;;;;;;;;;;5032105;28;20515;-66
2020/12/21 07:39:17;;;;;;;3.00;2.80;;;;;;;;;;5032357;28;20217;-65
2020/12/21 07:41:44;;;;;;;0.90;0.90;;;;;;;;;;5032525;28;20203;-65
2020/12/21 07:44:12;;;;;;;0.85;0.85;;;;;;;;;;5031665;28;20544;-65
2020/12/21 07:46:40;;;;;;;1.88;1.77;;;;;;;;;;5032390;28;20174;-66
2020/12/21 07:49:08;;;;;;;0.90;0.90;;;;;;;;;;5032128;28;20562;-66
2020/12/21 07:51:34;;;;;;;0.85;0.85;;;;;;;;;;5032331;28;20174;-65
2020/12/21 07:54:01;;;;;;;0.80;0.80;;;;;;;;;;5032004;28;20199;-65
2020/12/21 07:56:27;;;;;;;0.68;0.68;;;;;;;;;;5032051;28;20171;-66
2020/12/21 07:58:53;;;;;;;2.10;1.45;;;;;;;;;;5031817;28;20203;-65
2020/12/21 08:01:22;;;;;;;1.10;1.10;;;;;;;;;;5031518;28;20170;-65
2020/12/21 08:03:51;;;;;;;0.60;0.60;;;;;;;;;;5031972;28;20210;-65
2020/12/21 08:06:22;;;;;;;2.13;2.03;;;;;;;;;;5031538;28;20182;-66
2020/12/21 08:08:48;;;;;;;1.35;1.25;;;;;;;;;;5031345;28;20188;-65
2020/12/21 08:11:15;;;;;;;0.53;0.53;;;;;;;;;;5032160;28;20203;-65
2020/12/21 08:13:44;;;;;;;2.38;2.28;;;;;;;;;;5031487;28;20453;-66
2020/12/21 08:16:10;;;;;;;4.75;2.78;;;;;;;;;;5029995;28;20175;-65
2020/12/21 08:18:37;;;;;;;0.60;0.60;;;;;;;;;;5030387;28;20182;-65
2020/12/21 08:21:04;;;;;;;1.77;1.67;;;;;;;;;;5030825;28;20197;-67
2020/12/21 08:23:31;;;;;;;1.60;1.60;;;;;;;;;;5029118;28;20356;-66
2020/12/21 08:25:57;;;;;;;8.00;2.17;;;;;;;;;;5030166;28;20182;-66
2020/12/21 08:28:32;;;;;;;1.95;1.10;;;;;;;;;;5029380;28;20540;-65
2020/12/21 08:31:09;;;;;;;1.85;1.75;;;;;;;;;;5029324;28;20175;-66
2020/12/21 08:33:36;;;;;;;0.50;0.50;;;;;;;;;;5031600;28;20184;-65
2020/12/21 08:36:22;;;;;;;0.88;0.88;;;;;;;;;;5031911;28;20534;-66
2020/12/21 08:38:48;;;;;;;1.48;1.45;;;;;;;;;;5030950;28;20208;-66
2020/12/21 08:41:14;;;;;;;1.13;1.13;;;;;;;;;;5031342;28;20179;-67
2020/12/21 08:43:40;;;;;;;0.70;0.70;;;;;;;;;;5031387;28;20204;-65
2020/12/21 08:46:10;;;;;;;1.30;1.30;;;;;;;;;;5031148;28;20176;-66
2020/12/21 08:48:37;;;;;;;1.52;1.48;;;;;;;;;;5031079;28;20198;-65
2020/12/21 08:51:03;;;;;;;0.70;0.70;;;;;;;;;;5030926;28;20546;-66
2020/12/21 08:53:29;;;;;;;1.58;1.48;;;;;;;;;;5031316;28;20176;-66
2020/12/21 08:55:55;;;;;;;0.85;0.85;;;;;;;;;;5031475;28;20246;-66
2020/12/21 08:58:21;;;;;;;1.37;1.37;;;;;;;;;;5030974;28;20180;-66
2020/12/21 09:00:47;;;;;;;2.17;1.67;;;;;;;;;;5030500;28;20444;-66
2020/12/21 09:03:13;;;;;;;1.83;0.93;;;;;;;;;;5030751;28;20513;-66
2020/12/21 09:05:39;;;;;;;1.33;1.30;;;;;;;;;;5031070;28;20430;-66
2020/12/21 09:08:05;;;;;;;1.70;1.60;;;;;;;;;;5031127;28;20408;-65
2020/12/21 09:10:31;;;;;;;1.30;1.30;;;;;;;;;;5030579;28;20207;-66
2020/12/21 09:12:57;;;;;;;2.50;2.30;;;;;;;;;;5030702;28;20806;-66
2020/12/21 09:15:23;;;;;;;2.28;1.23;;;;;;;;;;5035221;28;20403;-65
2020/12/21 09:17:49;;;;;;;1.37;1.33;;;;;;;;;;5035163;28;20182;-64
2020/12/21 09:20:15;;;;;;;1.07;1.07;;;;;;;;;;5035041;28;20814;-65
2020/12/21 09:22:41;;;;;;;1.27;1.15;;;;;;;;;;5034811;28;20997;-64
2020/12/21 09:25:07;;;;;;;1.10;1.10;;;;;;;;;;5035155;28;20176;-64
2020/12/21 09:27:33;;;;;;;2.47;1.90;;;;;;;;;;5035221;28;20764;-65
2020/12/21 09:29:59;;;;;;;1.60;1.50;;;;;;;;;;5034699;28;20434;-65
2020/12/21 09:32:25;;;;;;;2.07;1.73;;;;;;;;;;5035372;28;20172;-65
2020/12/21 09:34:51;;;;;;;1.23;1.20;;;;;;;;;;5034144;28;20982;-66
2020/12/21 09:37:17;;;;;;;2.20;1.67;;;;;;;;;;5034726;28;20517;-65
2020/12/21 09:39:43;;;;;;;1.00;1.00;;;;;;;;;;5034515;28;20441;-65
2020/12/21 09:42:09;;;;;;;1.17;1.17;;;;;;;;;;5034801;28;20877;-66
2020/12/21 09:44:35;;;;;;;1.23;1.23;;;;;;;;;;5034666;28;20406;-66
2020/12/21 09:47:01;;;;;;;1.80;1.75;;;;;;;;;;5033828;28;20415;-66
2020/12/21 09:49:27;;;;;;;1.53;1.00;;;;;;;;;;5034255;28;20268;-66
2020/12/21 09:51:53;;;;;;;1.63;1.53;;;;;;;;;;5034703;28;20422;-66
2020/12/21 09:54:20;;;;;;;2.67;2.50;;;;;;;;;;5034585;28;20968;-66
2020/12/21 09:56:48;;;;;;;1.10;1.10;;;;;;;;;;5034241;28;20421;-66
2020/12/21 09:59:15;;;;;;;0.80;0.80;;;;;;;;;;5033810;28;20245;-66
2020/12/21 10:01:41;;;;;;;0.40;0.40;;;;;;;;;;5034363;28;20267;-65
2020/12/21 10:04:07;;;;;;;2.07;1.87;;;;;;;;;;5034519;28;20539;-65
2020/12/21 10:06:33;;;;;;;0.60;0.60;;;;;;;;;;5034423;28;20412;-64
2020/12/21 10:08:59;;;;;;;0.77;0.77;;;;;;;;;;5033600;28;20939;-68
2020/12/21 10:11:25;;;;;;;1.02;0.93;;;;;;;;;;5033992;28;20189;-66
2020/12/21 10:13:51;;;;;;;1.40;1.30;;;;;;;;;;5034593;28;20176;-66
2020/12/21 10:16:17;;;;;;;0.50;0.50;;;;;;;;;;5034189;28;20180;-66
2020/12/21 10:18:43;;;;;;;0.80;0.80;;;;;;;;;;5033694;28;20474;-64
2020/12/21 10:21:09;;;;;;;0.95;0.95;;;;;;;;;;5033746;28;20851;-65
2020/12/21 10:23:35;;;;;;;1.20;0.80;;;;;;;;;;5033667;28;20290;-65
2020/12/21 10:26:01;;;;;;;0.40;0.40;;;;;;;;;;5033478;28;20756;-66
2020/12/21 10:28:27;;;;;;;0.60;0.60;;;;;;;;;;5033910;28;20406;-64
2020/12/21 10:30:53;;;;;;;2.83;1.25;;;;;;;;;;5033303;28;20480;-66
2020/12/21 10:33:19;;;;;;;0.50;0.50;;;;;;;;;;5033952;28;20157;-65
2020/12/21 10:35:45;;;;;;;0.50;0.50;;;;;;;;;;5033485;28;20414;-66
2020/12/21 10:38:11;;;;;;;1.27;1.17;;;;;;;;;;5033848;28;20517;-66
2020/12/21 10:40:37;;;;;;;1.60;1.50;;;;;;;;;;5033488;28;20430;-66
2020/12/21 10:43:03;;;;;;;1.83;1.70;;;;;;;;;;5033024;28;20815;-66
2020/12/21 10:45:29;;;;;;;1.80;1.70;;;;;;;;;;5033598;28;20407;-63
2020/12/21 10:47:55;;;;;;;1.27;1.07;;;;;;;;;;5033336;28;20786;-66
2020/12/21 10:50:21;;;;;;;0.60;0.60;;;;;;;;;;5033250;28;20464;-66
2020/12/21 10:52:47;;;;;;;1.50;1.30;;;;;;;;;;5033080;28;20173;-65
2020/12/21 10:55:13;;;;;;;0.65;0.65;;;;;;;;;;5033397;28;20183;-66
2020/12/21 10:57:39;;;;;;;1.88;1.60;;;;;;;;;;5032041;28;20170;-65
2020/12/21 11:00:06;;;;;;;1.00;1.00;;;;;;;;;;5032756;28;20208;-65
2020/12/21 11:02:32;;;;;;;0.82;0.82;;;;;;;;;;5033243;28;20861;-66
2020/12/21 11:04:58;;;;;;;1.48;1.30;;;;;;;;;;5032756;28;20226;-66
2020/12/21 11:07:24;;;;;;;1.27;1.17;;;;;;;;;;5033254;28;20190;-65
2020/12/21 11:09:50;;;;;;;0.60;0.60;;;;;;;;;;5032876;28;20949;-68
2020/12/21 11:12:16;;;;;;;0.70;0.70;;;;;;;;;;5032819;28;20490;-67
2020/12/21 11:14:42;;;;;;;0.60;0.60;;;;;;;;;;5032968;28;20498;-68
2020/12/21 11:17:08;;;;;;;0.90;0.90;;;;;;;;;;5032763;28;20203;-66
2020/12/21 11:19:34;;;;;;;0.70;0.70;;;;;;;;;;5032633;28;20472;-67
2020/12/21 11:22:00;;;;;;;0.50;0.50;;;;;;;;;;5032885;28;20197;-67
2020/12/21 11:24:28;;;;;;;0.70;0.70;;;;;;;;;;5032588;28;20403;-67
2020/12/21 11:26:54;;;;;;;1.10;1.10;;;;;;;;;;5031962;28;20474;-67
2020/12/21 11:29:20;;;;;;;2.20;1.38;;;;;;;;;;5031585;28;20195;-67
2020/12/21 11:31:46;;;;;;;2.03;1.93;;;;;;;;;;5032718;28;20179;-66
2020/12/21 11:34:12;;;;;;;1.60;1.43;;;;;;;;;;5032744;28;20945;-64
2020/12/21 11:36:38;;;;;;;1.90;1.47;;;;;;;;;;5031482;28;20414;-64
2020/12/21 11:39:04;;;;;;;1.97;1.87;;;;;;;;;;5031859;28;20428;-67
2020/12/21 11:41:30;;;;;;;0.70;0.70;;;;;;;;;;5032460;28;21129;-67
2020/12/21 11:43:56;;;;;;;2.30;2.20;;;;;;;;;;5032473;28;20466;-67
2020/12/21 11:46:29;;;;;;;1.83;1.15;;;;;;;;;;5031893;28;20590;-67
2020/12/21 11:48:55;;;;;;;2.25;2.15;;;;;;;;;;5030300;28;20200;-67
2020/12/21 11:51:20;;;;;;;1.20;1.10;;;;;;;;;;5030860;28;20613;-66
2020/12/21 11:53:46;;;;;;;0.63;0.63;;;;;;;;;;5031980;28;20419;-65
2020/12/21 11:56:16;;;;;;;1.43;1.43;;;;;;;;;;5032179;28;20422;-66
2020/12/21 11:58:42;;;;;;;1.48;1.23;;;;;;;;;;5032098;28;20463;-66
2020/12/21 12:01:08;;;;;;;2.30;1.27;;;;;;;;;;5029858;28;20654;-65
2020/12/21 12:03:34;;;;;;;0.93;0.90;;;;;;;;;;5031952;28;20458;-67
2020/12/21 12:06:01;;;;;;;1.70;1.60;;;;;;;;;;5031886;28;20173;-66
2020/12/21 12:08:27;;;;;;;1.55;1.33;;;;;;;;;;5031666;28;20660;-67
2020/12/21 12:10:53;;;;;;;0.88;0.85;;;;;;;;;;5031196;28;20207;-67
2020/12/21 12:13:19;;;;;;;2.30;1.55;;;;;;;;;;5031644;28;20210;-67
2020/12/21 12:15:44;;;;;;;1.20;1.20;;;;;;;;;;5031735;28;20626;-68
2020/12/21 12:18:10;;;;;;;2.33;1.63;;;;;;;;;;5031571;28;20415;-67
2020/12/21 12:20:37;;;;;;;0.90;0.90;;;;;;;;;;5048657;23;20487;-65
2020/12/21 12:23:03;;;;;;;0.95;0.80;;;;;;;;;;5030664;28;20499;-65
2020/12/21 12:25:29;;;;;;;0.60;0.60;;;;;;;;;;5029660;28;20218;-65
2020/12/21 12:27:55;;;;;;;1.37;1.37;;;;;;;;;;5030985;28;20197;-65
2020/12/21 12:30:20;;;;;;;0.70;0.70;;;;;;;;;;5020581;28;20420;-65
2020/12/21 12:32:46;;;;;;;1.50;1.23;;;;;;;;;;5011540;28;20784;-65
2020/12/21 12:35:12;;;;;;;1.07;0.50;;;;;;;;;;5011184;28;20415;-65
2020/12/21 12:37:38;;;;;;;1.70;1.60;;;;;;;;;;5011064;28;20420;-65
2020/12/21 12:40:04;;;;;;;1.43;1.30;;;;;;;;;;5010919;28;20435;-65
2020/12/21 12:42:30;;;;;;;1.00;1.00;;;;;;;;;;5011501;28;20475;-65
2020/12/21 12:44:56;;;;;;;1.10;1.10;;;;;;;;;;5011061;28;20412;-65
2020/12/21 12:47:22;;;;;;;3.03;0.80;;;;;;;;;;5011435;28;20181;-65
2020/12/21 12:49:48;;;;;;;0.50;0.50;;;;;;;;;;5010904;28;20462;-65
2020/12/21 12:52:14;;;;;;;1.20;1.20;;;;;;;;;;5011343;28;20414;-65
2020/12/21 12:54:40;;;;;;;1.10;1.10;;;;;;;;;;5011300;28;20703;-65
2020/12/21 12:57:06;;;;;;;1.02;1.00;;;;;;;;;;5010795;28;20212;-65
2020/12/21 12:59:32;;;;;;;2.30;2.20;;;;;;;;;;5011137;28;20220;-65
2020/12/21 13:01:58;;;;;;;0.95;0.95;;;;;;;;;;5011074;28;20775;-65
2020/12/21 13:04:24;;;;;;;0.60;0.60;;;;;;;;;;5011382;28;20176;-65
2020/12/21 13:06:50;;;;;;;2.20;0.87;;;;;;;;;;5010762;28;20416;-65
2020/12/21 13:09:16;;;;;;;0.80;0.80;;;;;;;;;;5010696;28;20400;-65
2020/12/21 13:11:42;;;;;;;2.08;1.65;;;;;;;;;;5011263;28;20197;-65
2020/12/21 13:14:08;;;;;;;0.60;0.60;;;;;;;;;;5010994;28;20212;-66
2020/12/21 13:16:38;;;;;;;1.23;1.23;;;;;;;;;;5011341;28;20831;-66
2020/12/21 13:19:04;;;;;;;1.17;1.17;;;;;;;;;;5010369;28;20470;-66
2020/12/21 13:21:31;;;;;;;1.63;1.63;;;;;;;;;;5011303;28;20180;-66
2020/12/21 13:23:59;;;;;;;0.82;0.82;;;;;;;;;;5010838;28;20209;-66
2020/12/21 13:26:25;;;;;;;0.80;0.80;;;;;;;;;;5010986;28;20178;-66
2020/12/21 13:28:51;;;;;;;1.43;1.33;;;;;;;;;;5010688;28;20176;-66
2020/12/21 13:31:17;;;;;;;1.30;1.20;;;;;;;;;;5010606;28;20477;-66
2020/12/21 13:33:44;;;;;;;1.70;1.60;;;;;;;;;;5011125;28;20455;-66
2020/12/21 13:36:10;;;;;;;1.90;1.75;;;;;;;;;;5010934;28;20253;-66
2020/12/21 13:38:40;;;;;;;2.00;1.85;;;;;;;;;;5010497;28;20253;-66
2020/12/21 13:41:12;;;;;;;2.15;2.05;;;;;;;;;;5010156;28;20205;-66
2020/12/21 13:43:39;;;;;;;1.98;1.88;;;;;;;;;;5010796;28;20224;-66
2020/12/21 13:46:05;;;;;;;1.75;1.58;;;;;;;;;;5010880;28;20209;-66
2020/12/21 13:48:31;;;;;;;1.10;1.10;;;;;;;;;;5010787;28;20213;-66
2020/12/21 13:50:58;;;;;;;3.30;2.37;;;;;;;;;;5010107;28;20204;-66
2020/12/21 13:53:24;;;;;;;0.80;0.80;;;;;;;;;;5009234;28;20439;-63
2020/12/21 13:55:50;;;;;;;1.02;1.02;;;;;;;;;;5010921;28;20649;-64
2020/12/21 13:58:16;;;;;;;1.67;1.57;;;;;;;;;;5010936;28;20192;-64
2020/12/21 14:00:42;;;;;;;1.60;1.50;;;;;;;;;;5012929;28;20436;-66
2020/12/21 14:03:08;;;;;;;1.08;1.02;;;;;;;;;;5013506;28;20200;-66
2020/12/21 14:05:34;;;;;;;1.40;1.30;;;;;;;;;;5014303;28;20174;-66
2020/12/21 14:08:01;;;;;;;2.43;1.30;;;;;;;;;;5014154;28;20699;-66
2020/12/21 14:10:27;;;;;;;0.90;0.90;;;;;;;;;;5014099;28;20971;-66
2020/12/21 14:12:53;;;;;;;1.93;1.93;;;;;;;;;;5014389;28;20219;-66
2020/12/21 14:15:19;;;;;;;2.63;1.88;;;;;;;;;;5013680;28;20418;-66
2020/12/21 14:17:45;;;;;;;1.63;1.53;;;;;;;;;;5014173;28;20648;-66
2020/12/21 14:20:11;;;;;;;0.97;0.97;;;;;;;;;;5013630;28;20451;-66
2020/12/21 14:22:37;;;;;;;1.83;1.40;;;;;;;;;;5014016;28;20510;-66
2020/12/21 14:25:03;;;;;;;1.10;1.10;;;;;;;;;;5013751;28;20403;-66
2020/12/21 14:27:29;;;;;;;2.45;1.63;;;;;;;;;;5013697;28;20446;-66
2020/12/21 14:29:56;;;;;;;1.90;1.80;;;;;;;;;;5013839;28;20234;-66
2020/12/21 14:32:22;;;;;;;0.90;0.90;;;;;;;;;;5013950;28;20539;-66
2020/12/21 14:34:48;;;;;;;2.35;2.25;;;;;;;;;;5013831;28;20180;-66
2020/12/21 14:37:14;;;;;;;3.00;1.50;;;;;;;;;;5013244;28;20184;-65
2020/12/21 14:39:40;;;;;;;2.43;1.63;;;;;;;;;;5013356;28;20197;-65